sensor_id;sensor_type;location;lat;lon;timestamp;P1;durP1;ratioP1;P2;durP2;ratioP2
6117;SDS011;3089;48.202;11.510;2024-03-23T00:54:34;4.93;;;1.73;;
6117;SDS011;3089;48.202;11.510;2024-03-23T00:57:00;4.20;;;1.90;;
6117;SDS011;3089;48.202;11.510;2024-03-23T00:59:28;4.50;;;1.90;;
6117;SDS011;3089;48.202;11.510;2024-03-23T01:01:54;3.80;;;1.63;;
6117;SDS011;3089;48.202;11.510;2024-03-23T01:04:21;4.20;;;1.53;;
6117;SDS011;3089;48.202;11.510;2024-03-23T01:06:48;4.10;;;1.60;;
6117;SDS011;3089;48.202;11.510;2024-03-23T01:09:16;4.67;;;1.63;;
6117;SDS011;3089;48.202;11.510;2024-03-23T01:11:43;3.70;;;1.53;;
6117;SDS011;3089;48.202;11.510;2024-03-23T01:14:10;4.63;;;1.90;;
6117;SDS011;3089;48.202;11.510;2024-03-23T01:16:36;3.60;;;1.50;;
6117;SDS011;3089;48.202;11.510;2024-03-23T01:19:04;3.43;;;1.53;;
6117;SDS011;3089;48.202;11.510;2024-03-23T01:21:31;3.60;;;1.70;;
6117;SDS011;3089;48.202;11.510;2024-03-23T01:23:58;2.80;;;1.40;;
6117;SDS011;3089;48.202;11.510;2024-03-23T01:26:26;3.03;;;1.30;;
6117;SDS011;3089;48.202;11.510;2024-03-23T01:28:53;7.63;;;1.40;;
6117;SDS011;3089;48.202;11.510;2024-03-23T01:31:20;4.13;;;1.47;;
6117;SDS011;3089;48.202;11.510;2024-03-23T01:33:47;3.57;;;1.40;;
6117;SDS011;3089;48.202;11.510;2024-03-23T01:36:13;4.47;;;1.90;;
6117;SDS011;3089;48.202;11.510;2024-03-23T01:38:41;4.33;;;1.40;;
6117;SDS011;3089;48.202;11.510;2024-03-23T01:41:07;4.73;;;1.73;;
6117;SDS011;3089;48.202;11.510;2024-03-23T01:43:36;5.60;;;1.40;;
6117;SDS011;3089;48.202;11.510;2024-03-23T01:46:02;4.67;;;1.40;;
6117;SDS011;3089;48.202;11.510;2024-03-23T01:48:30;3.50;;;1.30;;
6117;SDS011;3089;48.202;11.510;2024-03-23T01:50:56;4.97;;;1.60;;
6117;SDS011;3089;48.202;11.510;2024-03-23T01:53:23;4.50;;;1.50;;
6117;SDS011;3089;48.202;11.510;2024-03-23T01:55:51;3.90;;;1.53;;
6117;SDS011;3089;48.202;11.510;2024-03-23T01:58:18;3.37;;;1.10;;
6117;SDS011;3089;48.202;11.510;2024-03-23T02:00:46;4.10;;;1.43;;
6117;SDS011;3089;48.202;11.510;2024-03-23T02:03:23;6.20;;;1.67;;
6117;SDS011;3089;48.202;11.510;2024-03-23T02:05:50;4.20;;;1.40;;
6117;SDS011;3089;48.202;11.510;2024-03-23T02:08:17;5.20;;;1.37;;
6117;SDS011;3089;48.202;11.510;2024-03-23T02:10:45;4.20;;;1.70;;
6117;SDS011;3089;48.202;11.510;2024-03-23T02:13:13;4.20;;;1.53;;
6117;SDS011;3089;48.202;11.510;2024-03-23T02:15:40;3.40;;;1.37;;
6117;SDS011;3089;48.202;11.510;2024-03-23T02:18:09;4.50;;;1.83;;
6117;SDS011;3089;48.202;11.510;2024-03-23T02:20:35;9.03;;;1.57;;
6117;SDS011;3089;48.202;11.510;2024-03-23T02:23:05;4.40;;;1.40;;
6117;SDS011;3089;48.202;11.510;2024-03-23T02:25:31;4.50;;;1.67;;
6117;SDS011;3089;48.202;11.510;2024-03-23T02:27:59;3.73;;;1.47;;
6117;SDS011;3089;48.202;11.510;2024-03-23T02:30:25;3.67;;;1.50;;
6117;SDS011;3089;48.202;11.510;2024-03-23T02:32:53;4.87;;;1.37;;
6117;SDS011;3089;48.202;11.510;2024-03-23T02:35:19;3.97;;;1.60;;
6117;SDS011;3089;48.202;11.510;2024-03-23T02:37:47;3.57;;;1.17;;
6117;SDS011;3089;48.202;11.510;2024-03-23T02:40:15;6.90;;;1.70;;
6117;SDS011;3089;48.202;11.510;2024-03-23T02:42:43;5.80;;;1.67;;
6117;SDS011;3089;48.202;11.510;2024-03-23T02:45:09;5.13;;;1.80;;
6117;SDS011;3089;48.202;11.510;2024-03-23T02:47:37;5.63;;;1.97;;
6117;SDS011;3089;48.202;11.510;2024-03-23T02:50:04;8.70;;;2.60;;
6117;SDS011;3089;48.202;11.510;2024-03-23T02:52:32;3.43;;;1.43;;
6117;SDS011;3089;48.202;11.510;2024-03-23T02:54:58;5.47;;;2.03;;
6117;SDS011;3089;48.202;11.510;2024-03-23T02:57:28;3.40;;;1.63;;
6117;SDS011;3089;48.202;11.510;2024-03-23T02:59:55;7.00;;;1.70;;
6117;SDS011;3089;48.202;11.510;2024-03-23T03:02:22;3.20;;;1.43;;
6117;SDS011;3089;48.202;11.510;2024-03-23T03:04:49;4.27;;;1.50;;
6117;SDS011;3089;48.202;11.510;2024-03-23T03:07:16;3.20;;;1.17;;
6117;SDS011;3089;48.202;11.510;2024-03-23T03:09:42;4.30;;;1.60;;
6117;SDS011;3089;48.202;11.510;2024-03-23T03:12:10;4.07;;;1.60;;
6117;SDS011;3089;48.202;11.510;2024-03-23T03:14:37;4.50;;;1.40;;
6117;SDS011;3089;48.202;11.510;2024-03-23T03:17:05;3.37;;;1.20;;
6117;SDS011;3089;48.202;11.510;2024-03-23T03:19:31;4.40;;;1.60;;
6117;SDS011;3089;48.202;11.510;2024-03-23T03:21:59;5.43;;;1.40;;
6117;SDS011;3089;48.202;11.510;2024-03-23T03:24:25;3.90;;;1.70;;
6117;SDS011;3089;48.202;11.510;2024-03-23T03:26:52;4.20;;;1.37;;
6117;SDS011;3089;48.202;11.510;2024-03-23T03:29:19;4.20;;;1.53;;
6117;SDS011;3089;48.202;11.510;2024-03-23T03:31:48;3.17;;;1.20;;
6117;SDS011;3089;48.202;11.510;2024-03-23T03:34:15;4.63;;;1.37;;
6117;SDS011;3089;48.202;11.510;2024-03-23T03:36:42;3.40;;;1.40;;
6117;SDS011;3089;48.202;11.510;2024-03-23T03:39:09;4.13;;;1.20;;
6117;SDS011;3089;48.202;11.510;2024-03-23T03:41:36;3.43;;;1.30;;
6117;SDS011;3089;48.202;11.510;2024-03-23T03:44:03;3.77;;;1.67;;
6117;SDS011;3089;48.202;11.510;2024-03-23T03:46:30;3.47;;;1.40;;
6117;SDS011;3089;48.202;11.510;2024-03-23T03:48:58;5.20;;;1.63;;
6117;SDS011;3089;48.202;11.510;2024-03-23T03:51:25;6.27;;;1.53;;
6117;SDS011;3089;48.202;11.510;2024-03-23T03:53:51;4.80;;;1.23;;
6117;SDS011;3089;48.202;11.510;2024-03-23T03:56:19;3.20;;;1.10;;
6117;SDS011;3089;48.202;11.510;2024-03-23T03:58:45;4.03;;;1.37;;
6117;SDS011;3089;48.202;11.510;2024-03-23T04:01:13;5.10;;;1.60;;
6117;SDS011;3089;48.202;11.510;2024-03-23T04:03:39;6.37;;;1.87;;
6117;SDS011;3089;48.202;11.510;2024-03-23T04:06:10;3.47;;;1.37;;
6117;SDS011;3089;48.202;11.510;2024-03-23T04:08:36;6.33;;;1.10;;
6117;SDS011;3089;48.202;11.510;2024-03-23T04:11:04;5.47;;;1.53;;
6117;SDS011;3089;48.202;11.510;2024-03-23T04:13:30;3.13;;;1.47;;
6117;SDS011;3089;48.202;11.510;2024-03-23T04:15:59;4.00;;;1.50;;
6117;SDS011;3089;48.202;11.510;2024-03-23T04:18:25;4.50;;;1.30;;
6117;SDS011;3089;48.202;11.510;2024-03-23T04:20:53;4.67;;;1.60;;
6117;SDS011;3089;48.202;11.510;2024-03-23T04:23:20;5.40;;;1.83;;
6117;SDS011;3089;48.202;11.510;2024-03-23T04:25:48;5.00;;;1.50;;
6117;SDS011;3089;48.202;11.510;2024-03-23T04:28:14;3.30;;;1.50;;
6117;SDS011;3089;48.202;11.510;2024-03-23T04:30:41;3.80;;;1.40;;
6117;SDS011;3089;48.202;11.510;2024-03-23T04:33:08;8.53;;;1.37;;
6117;SDS011;3089;48.202;11.510;2024-03-23T04:35:35;3.50;;;1.50;;
6117;SDS011;3089;48.202;11.510;2024-03-23T04:38:02;4.93;;;1.27;;
6117;SDS011;3089;48.202;11.510;2024-03-23T04:40:31;4.43;;;1.60;;
6117;SDS011;3089;48.202;11.510;2024-03-23T04:42:59;4.40;;;1.87;;
6117;SDS011;3089;48.202;11.510;2024-03-23T04:45:26;3.30;;;1.40;;
6117;SDS011;3089;48.202;11.510;2024-03-23T04:47:54;6.47;;;1.50;;
6117;SDS011;3089;48.202;11.510;2024-03-23T04:50:21;6.40;;;1.40;;
6117;SDS011;3089;48.202;11.510;2024-03-23T04:52:48;3.77;;;1.30;;
6117;SDS011;3089;48.202;11.510;2024-03-23T04:55:16;4.87;;;1.50;;
6117;SDS011;3089;48.202;11.510;2024-03-23T04:57:44;4.73;;;1.23;;
6117;SDS011;3089;48.202;11.510;2024-03-23T05:00:12;4.80;;;1.57;;
6117;SDS011;3089;48.202;11.510;2024-03-23T05:02:43;3.13;;;1.33;;
6117;SDS011;3089;48.202;11.510;2024-03-23T05:05:11;3.03;;;1.10;;
6117;SDS011;3089;48.202;11.510;2024-03-23T05:07:38;4.10;;;1.40;;
6117;SDS011;3089;48.202;11.510;2024-03-23T05:10:08;3.60;;;1.40;;
6117;SDS011;3089;48.202;11.510;2024-03-23T05:12:36;4.63;;;1.70;;
6117;SDS011;3089;48.202;11.510;2024-03-23T05:15:05;2.80;;;1.13;;
6117;SDS011;3089;48.202;11.510;2024-03-23T05:17:33;3.40;;;1.07;;
6117;SDS011;3089;48.202;11.510;2024-03-23T05:20:01;3.70;;;1.50;;
6117;SDS011;3089;48.202;11.510;2024-03-23T05:22:28;4.33;;;1.43;;
6117;SDS011;3089;48.202;11.510;2024-03-23T05:24:56;3.10;;;1.40;;
6117;SDS011;3089;48.202;11.510;2024-03-23T05:27:22;3.03;;;1.23;;
6117;SDS011;3089;48.202;11.510;2024-03-23T05:29:50;4.50;;;1.30;;
6117;SDS011;3089;48.202;11.510;2024-03-23T05:32:17;3.50;;;1.43;;
6117;SDS011;3089;48.202;11.510;2024-03-23T05:34:45;3.10;;;1.30;;
6117;SDS011;3089;48.202;11.510;2024-03-23T05:37:11;3.03;;;1.30;;
6117;SDS011;3089;48.202;11.510;2024-03-23T05:39:39;2.87;;;1.10;;
6117;SDS011;3089;48.202;11.510;2024-03-23T05:42:05;5.07;;;1.43;;
6117;SDS011;3089;48.202;11.510;2024-03-23T05:44:33;4.93;;;1.30;;
6117;SDS011;3089;48.202;11.510;2024-03-23T05:46:59;3.83;;;1.47;;
6117;SDS011;3089;48.202;11.510;2024-03-23T05:49:28;2.93;;;1.13;;
6117;SDS011;3089;48.202;11.510;2024-03-23T05:51:54;4.37;;;1.53;;
6117;SDS011;3089;48.202;11.510;2024-03-23T05:54:22;4.73;;;1.30;;
6117;SDS011;3089;48.202;11.510;2024-03-23T05:56:48;5.73;;;1.33;;
6117;SDS011;3089;48.202;11.510;2024-03-23T05:59:16;3.87;;;1.50;;
6117;SDS011;3089;48.202;11.510;2024-03-23T06:01:42;3.00;;;1.30;;
6117;SDS011;3089;48.202;11.510;2024-03-23T06:04:09;2.63;;;1.13;;
6117;SDS011;3089;48.202;11.510;2024-03-23T06:06:37;3.63;;;1.00;;
6117;SDS011;3089;48.202;11.510;2024-03-23T06:09:05;3.03;;;1.30;;
6117;SDS011;3089;48.202;11.510;2024-03-23T06:11:32;3.00;;;1.30;;
6117;SDS011;3089;48.202;11.510;2024-03-23T06:13:59;3.93;;;1.50;;
6117;SDS011;3089;48.202;11.510;2024-03-23T06:16:26;4.53;;;1.20;;
6117;SDS011;3089;48.202;11.510;2024-03-23T06:18:53;3.30;;;1.10;;
6117;SDS011;3089;48.202;11.510;2024-03-23T06:21:21;2.93;;;1.20;;
6117;SDS011;3089;48.202;11.510;2024-03-23T06:23:52;3.30;;;1.40;;
6117;SDS011;3089;48.202;11.510;2024-03-23T06:26:20;5.30;;;1.13;;
6117;SDS011;3089;48.202;11.510;2024-03-23T06:28:49;3.13;;;1.23;;
6117;SDS011;3089;48.202;11.510;2024-03-23T06:31:16;4.10;;;1.53;;
6117;SDS011;3089;48.202;11.510;2024-03-23T06:33:43;3.17;;;1.20;;
6117;SDS011;3089;48.202;11.510;2024-03-23T06:36:10;2.90;;;1.13;;
6117;SDS011;3089;48.202;11.510;2024-03-23T06:38:37;2.83;;;1.20;;
6117;SDS011;3089;48.202;11.510;2024-03-23T06:41:06;3.67;;;1.30;;
6117;SDS011;3089;48.202;11.510;2024-03-23T06:43:32;6.90;;;1.30;;
6117;SDS011;3089;48.202;11.510;2024-03-23T06:46:00;3.53;;;1.30;;
6117;SDS011;3089;48.202;11.510;2024-03-23T06:48:27;6.00;;;1.20;;
6117;SDS011;3089;48.202;11.510;2024-03-23T06:50:55;3.23;;;1.20;;
6117;SDS011;3089;48.202;11.510;2024-03-23T06:53:22;14.10;;;1.50;;
6117;SDS011;3089;48.202;11.510;2024-03-23T06:55:50;5.03;;;1.17;;
6117;SDS011;3089;48.202;11.510;2024-03-23T06:58:19;2.87;;;1.10;;
6117;SDS011;3089;48.202;11.510;2024-03-23T07:00:47;2.47;;;1.00;;
6117;SDS011;3089;48.202;11.510;2024-03-23T07:03:13;4.67;;;1.10;;
6117;SDS011;3089;48.202;11.510;2024-03-23T07:05:40;4.53;;;1.30;;
6117;SDS011;3089;48.202;11.510;2024-03-23T07:08:07;3.47;;;1.60;;
6117;SDS011;3089;48.202;11.510;2024-03-23T07:10:37;2.57;;;1.00;;
6117;SDS011;3089;48.202;11.510;2024-03-23T07:13:05;7.20;;;1.00;;
6117;SDS011;3089;48.202;11.510;2024-03-23T07:15:34;3.50;;;0.97;;
6117;SDS011;3089;48.202;11.510;2024-03-23T07:18:00;4.77;;;1.20;;
6117;SDS011;3089;48.202;11.510;2024-03-23T07:20:28;5.30;;;1.43;;
6117;SDS011;3089;48.202;11.510;2024-03-23T07:22:56;3.37;;;1.30;;
6117;SDS011;3089;48.202;11.510;2024-03-23T07:25:24;3.63;;;1.40;;
6117;SDS011;3089;48.202;11.510;2024-03-23T07:27:52;4.53;;;1.70;;
6117;SDS011;3089;48.202;11.510;2024-03-23T07:30:20;7.20;;;1.80;;
6117;SDS011;3089;48.202;11.510;2024-03-23T07:32:48;4.10;;;1.80;;
6117;SDS011;3089;48.202;11.510;2024-03-23T07:35:15;3.80;;;1.60;;
6117;SDS011;3089;48.202;11.510;2024-03-23T07:37:42;3.73;;;1.70;;
6117;SDS011;3089;48.202;11.510;2024-03-23T07:40:09;5.27;;;1.60;;
6117;SDS011;3089;48.202;11.510;2024-03-23T07:42:37;3.27;;;1.50;;
6117;SDS011;3089;48.202;11.510;2024-03-23T07:45:05;6.90;;;1.70;;
6117;SDS011;3089;48.202;11.510;2024-03-23T07:47:32;2.60;;;0.87;;
6117;SDS011;3089;48.202;11.510;2024-03-23T07:50:00;8.00;;;1.40;;
6117;SDS011;3089;48.202;11.510;2024-03-23T07:52:27;4.20;;;1.23;;
6117;SDS011;3089;48.202;11.510;2024-03-23T07:54:55;2.87;;;1.03;;
6117;SDS011;3089;48.202;11.510;2024-03-23T07:57:21;2.77;;;1.00;;
6117;SDS011;3089;48.202;11.510;2024-03-23T07:59:49;2.80;;;1.10;;
6117;SDS011;3089;48.202;11.510;2024-03-23T08:02:16;3.20;;;1.30;;
6117;SDS011;3089;48.202;11.510;2024-03-23T08:04:43;6.10;;;1.60;;
6117;SDS011;3089;48.202;11.510;2024-03-23T08:07:11;3.30;;;1.33;;
6117;SDS011;3089;48.202;11.510;2024-03-23T08:09:39;2.67;;;1.20;;
6117;SDS011;3089;48.202;11.510;2024-03-23T08:12:05;2.90;;;1.10;;
6117;SDS011;3089;48.202;11.510;2024-03-23T08:14:33;2.50;;;1.07;;
6117;SDS011;3089;48.202;11.510;2024-03-23T08:16:59;3.33;;;1.10;;
6117;SDS011;3089;48.202;11.510;2024-03-23T08:19:27;4.90;;;1.53;;
6117;SDS011;3089;48.202;11.510;2024-03-23T08:21:53;4.17;;;1.20;;
6117;SDS011;3089;48.202;11.510;2024-03-23T08:24:22;5.67;;;1.20;;
6117;SDS011;3089;48.202;11.510;2024-03-23T08:26:48;5.80;;;2.43;;
6117;SDS011;3089;48.202;11.510;2024-03-23T08:29:16;4.33;;;2.00;;
6117;SDS011;3089;48.202;11.510;2024-03-23T08:31:42;7.33;;;2.33;;
6117;SDS011;3089;48.202;11.510;2024-03-23T08:34:10;4.87;;;1.73;;
6117;SDS011;3089;48.202;11.510;2024-03-23T08:36:36;4.80;;;2.20;;
6117;SDS011;3089;48.202;11.510;2024-03-23T08:39:03;4.00;;;1.87;;
6117;SDS011;3089;48.202;11.510;2024-03-23T08:41:31;4.10;;;1.53;;
6117;SDS011;3089;48.202;11.510;2024-03-23T08:43:59;4.13;;;1.73;;
6117;SDS011;3089;48.202;11.510;2024-03-23T08:46:25;3.40;;;1.27;;
6117;SDS011;3089;48.202;11.510;2024-03-23T08:48:53;9.00;;;2.30;;
6117;SDS011;3089;48.202;11.510;2024-03-23T08:51:19;4.40;;;2.03;;
6117;SDS011;3089;48.202;11.510;2024-03-23T08:53:47;10.60;;;1.70;;
6117;SDS011;3089;48.202;11.510;2024-03-23T08:56:13;3.73;;;1.77;;
6117;SDS011;3089;48.202;11.510;2024-03-23T08:58:42;4.80;;;1.43;;
6117;SDS011;3089;48.202;11.510;2024-03-23T09:01:09;2.93;;;1.30;;
6117;SDS011;3089;48.202;11.510;2024-03-23T09:03:38;3.77;;;1.30;;
6117;SDS011;3089;48.202;11.510;2024-03-23T09:06:07;3.20;;;1.50;;
6117;SDS011;3089;48.202;11.510;2024-03-23T09:08:35;2.70;;;1.13;;
6117;SDS011;3089;48.202;11.510;2024-03-23T09:11:03;15.90;;;1.90;;
6117;SDS011;3089;48.202;11.510;2024-03-23T09:13:32;3.20;;;1.20;;
6117;SDS011;3089;48.202;11.510;2024-03-23T09:16:00;3.13;;;1.10;;
6117;SDS011;3089;48.202;11.510;2024-03-23T09:20:57;4.47;;;1.93;;
6117;SDS011;3089;48.202;11.510;2024-03-23T09:23:24;3.33;;;1.47;;
6117;SDS011;3089;48.202;11.510;2024-03-23T09:25:50;6.90;;;1.73;;
6117;SDS011;3089;48.202;11.510;2024-03-23T09:28:18;3.77;;;1.37;;
6117;SDS011;3089;48.202;11.510;2024-03-23T09:30:45;4.77;;;1.43;;
6117;SDS011;3089;48.202;11.510;2024-03-23T09:33:14;3.27;;;1.47;;
6117;SDS011;3089;48.202;11.510;2024-03-23T09:35:41;2.77;;;1.20;;
6117;SDS011;3089;48.202;11.510;2024-03-23T09:38:10;3.07;;;1.17;;
6117;SDS011;3089;48.202;11.510;2024-03-23T09:40:40;2.20;;;0.80;;
6117;SDS011;3089;48.202;11.510;2024-03-23T09:43:07;3.67;;;1.43;;
6117;SDS011;3089;48.202;11.510;2024-03-23T09:45:36;3.40;;;1.20;;
6117;SDS011;3089;48.202;11.510;2024-03-23T09:48:05;3.70;;;1.20;;
6117;SDS011;3089;48.202;11.510;2024-03-23T09:50:37;2.50;;;0.83;;
6117;SDS011;3089;48.202;11.510;2024-03-23T09:53:04;3.40;;;0.90;;
6117;SDS011;3089;48.202;11.510;2024-03-23T09:55:33;3.10;;;0.97;;
6117;SDS011;3089;48.202;11.510;2024-03-23T09:58:01;2.43;;;0.80;;
6117;SDS011;3089;48.202;11.510;2024-03-23T10:00:30;2.20;;;0.70;;
6117;SDS011;3089;48.202;11.510;2024-03-23T10:02:57;2.80;;;1.00;;
6117;SDS011;3089;48.202;11.510;2024-03-23T10:05:27;2.83;;;0.80;;
6117;SDS011;3089;48.202;11.510;2024-03-23T10:07:56;2.73;;;1.00;;
6117;SDS011;3089;48.202;11.510;2024-03-23T10:10:24;2.03;;;0.60;;
6117;SDS011;3089;48.202;11.510;2024-03-23T10:12:51;2.00;;;0.60;;
6117;SDS011;3089;48.202;11.510;2024-03-23T10:15:19;2.20;;;0.70;;
6117;SDS011;3089;48.202;11.510;2024-03-23T10:17:47;2.43;;;0.83;;
6117;SDS011;3089;48.202;11.510;2024-03-23T10:20:18;3.70;;;0.83;;
6117;SDS011;3089;48.202;11.510;2024-03-23T10:22:47;2.20;;;0.70;;
6117;SDS011;3089;48.202;11.510;2024-03-23T10:25:16;2.27;;;0.67;;
6117;SDS011;3089;48.202;11.510;2024-03-23T10:27:43;2.10;;;0.63;;
6117;SDS011;3089;48.202;11.510;2024-03-23T10:30:21;3.83;;;0.87;;
6117;SDS011;3089;48.202;11.510;2024-03-23T10:32:52;2.80;;;0.77;;
6117;SDS011;3089;48.202;11.510;2024-03-23T10:35:33;3.17;;;0.80;;
6117;SDS011;3089;48.202;11.510;2024-03-23T10:37:59;2.20;;;0.60;;
6117;SDS011;3089;48.202;11.510;2024-03-23T10:40:30;2.27;;;0.70;;
6117;SDS011;3089;48.202;11.510;2024-03-23T10:42:57;2.47;;;1.00;;
6117;SDS011;3089;48.202;11.510;2024-03-23T10:45:25;3.70;;;0.83;;
6117;SDS011;3089;48.202;11.510;2024-03-23T10:47:52;4.80;;;0.90;;
6117;SDS011;3089;48.202;11.510;2024-03-23T10:50:19;2.30;;;0.77;;
6117;SDS011;3089;48.202;11.510;2024-03-23T10:52:46;2.47;;;0.87;;
6117;SDS011;3089;48.202;11.510;2024-03-23T10:55:14;2.40;;;0.80;;
6117;SDS011;3089;48.202;11.510;2024-03-23T10:57:45;1.90;;;0.60;;
6117;SDS011;3089;48.202;11.510;2024-03-23T11:00:18;2.43;;;0.60;;
6117;SDS011;3089;48.202;11.510;2024-03-23T11:02:47;2.93;;;0.60;;
6117;SDS011;3089;48.202;11.510;2024-03-23T11:08:05;3.30;;;0.70;;
6117;SDS011;3089;48.202;11.510;2024-03-23T11:10:33;2.80;;;0.60;;
6117;SDS011;3089;48.202;11.510;2024-03-23T11:13:21;2.30;;;0.60;;
6117;SDS011;3089;48.202;11.510;2024-03-23T11:15:50;1.87;;;0.60;;
6117;SDS011;3089;48.202;11.510;2024-03-23T11:18:20;5.10;;;0.83;;
6117;SDS011;3089;48.202;11.510;2024-03-23T11:20:47;2.23;;;0.67;;
6117;SDS011;3089;48.202;11.510;2024-03-23T11:23:25;3.00;;;0.90;;
6117;SDS011;3089;48.202;11.510;2024-03-23T11:25:54;1.97;;;0.60;;
6117;SDS011;3089;48.202;11.510;2024-03-23T11:28:22;3.60;;;0.90;;
6117;SDS011;3089;48.202;11.510;2024-03-23T11:30:49;2.20;;;0.60;;
6117;SDS011;3089;48.202;11.510;2024-03-23T11:33:16;2.53;;;0.90;;
6117;SDS011;3089;48.202;11.510;2024-03-23T11:35:43;4.07;;;0.80;;
6117;SDS011;3089;48.202;11.510;2024-03-23T11:38:11;2.90;;;0.77;;
6117;SDS011;3089;48.202;11.510;2024-03-23T11:40:39;6.93;;;1.13;;
6117;SDS011;3089;48.202;11.510;2024-03-23T11:43:07;3.07;;;1.27;;
6117;SDS011;3089;48.202;11.510;2024-03-23T11:45:37;3.03;;;0.97;;
6117;SDS011;3089;48.202;11.510;2024-03-23T11:48:06;4.00;;;1.13;;
6117;SDS011;3089;48.202;11.510;2024-03-23T11:50:38;2.50;;;0.90;;
6117;SDS011;3089;48.202;11.510;2024-03-23T11:53:06;4.60;;;1.23;;
6117;SDS011;3089;48.202;11.510;2024-03-23T11:55:45;3.37;;;1.10;;
6117;SDS011;3089;48.202;11.510;2024-03-23T11:58:13;3.70;;;0.90;;
6117;SDS011;3089;48.202;11.510;2024-03-23T12:00:43;2.60;;;0.87;;
6117;SDS011;3089;48.202;11.510;2024-03-23T12:03:16;3.30;;;0.90;;
6117;SDS011;3089;48.202;11.510;2024-03-23T12:05:50;4.20;;;1.40;;
6117;SDS011;3089;48.202;11.510;2024-03-23T12:08:19;3.30;;;1.30;;
6117;SDS011;3089;48.202;11.510;2024-03-23T12:10:49;3.70;;;1.70;;
6117;SDS011;3089;48.202;11.510;2024-03-23T12:13:16;3.57;;;0.90;;
6117;SDS011;3089;48.202;11.510;2024-03-23T12:15:47;5.13;;;1.07;;
6117;SDS011;3089;48.202;11.510;2024-03-23T12:18:15;6.53;;;1.57;;
6117;SDS011;3089;48.202;11.510;2024-03-23T12:20:43;2.83;;;1.10;;
6117;SDS011;3089;48.202;11.510;2024-03-23T12:23:10;5.07;;;1.07;;
6117;SDS011;3089;48.202;11.510;2024-03-23T12:25:38;3.67;;;1.20;;
6117;SDS011;3089;48.202;11.510;2024-03-23T12:28:05;2.97;;;1.20;;
6117;SDS011;3089;48.202;11.510;2024-03-23T12:30:34;4.20;;;1.57;;
6117;SDS011;3089;48.202;11.510;2024-03-23T12:33:02;5.03;;;1.23;;
6117;SDS011;3089;48.202;11.510;2024-03-23T12:35:30;4.53;;;1.13;;
6117;SDS011;3089;48.202;11.510;2024-03-23T12:37:56;6.43;;;1.77;;
6117;SDS011;3089;48.202;11.510;2024-03-23T12:40:24;3.60;;;1.20;;
6117;SDS011;3089;48.202;11.510;2024-03-23T12:42:50;4.37;;;1.40;;
6117;SDS011;3089;48.202;11.510;2024-03-23T12:45:18;5.63;;;1.53;;
6117;SDS011;3089;48.202;11.510;2024-03-23T12:47:44;4.53;;;1.60;;
6117;SDS011;3089;48.202;11.510;2024-03-23T12:50:13;3.83;;;0.90;;
6117;SDS011;3089;48.202;11.510;2024-03-23T12:52:40;3.43;;;1.50;;
6117;SDS011;3089;48.202;11.510;2024-03-23T12:55:07;3.43;;;1.40;;
6117;SDS011;3089;48.202;11.510;2024-03-23T12:57:34;4.20;;;1.47;;
6117;SDS011;3089;48.202;11.510;2024-03-23T13:00:01;5.87;;;1.73;;
6117;SDS011;3089;48.202;11.510;2024-03-23T13:02:29;3.80;;;1.60;;
6117;SDS011;3089;48.202;11.510;2024-03-23T13:04:57;4.80;;;1.00;;
6117;SDS011;3089;48.202;11.510;2024-03-23T13:07:25;3.83;;;1.30;;
6117;SDS011;3089;48.202;11.510;2024-03-23T13:09:52;4.27;;;1.40;;
6117;SDS011;3089;48.202;11.510;2024-03-23T13:12:19;4.50;;;1.23;;
6117;SDS011;3089;48.202;11.510;2024-03-23T13:14:47;4.63;;;1.30;;
6117;SDS011;3089;48.202;11.510;2024-03-23T13:17:13;4.00;;;1.50;;
6117;SDS011;3089;48.202;11.510;2024-03-23T13:19:41;5.80;;;1.50;;
6117;SDS011;3089;48.202;11.510;2024-03-23T13:22:07;3.50;;;1.20;;
6117;SDS011;3089;48.202;11.510;2024-03-23T13:24:38;4.80;;;1.63;;
6117;SDS011;3089;48.202;11.510;2024-03-23T13:27:04;4.00;;;1.23;;
6117;SDS011;3089;48.202;11.510;2024-03-23T13:29:33;5.60;;;1.77;;
6117;SDS011;3089;48.202;11.510;2024-03-23T13:32:00;4.57;;;1.20;;
6117;SDS011;3089;48.202;11.510;2024-03-23T13:34:27;5.03;;;1.20;;
6117;SDS011;3089;48.202;11.510;2024-03-23T13:36:55;7.93;;;1.40;;
6117;SDS011;3089;48.202;11.510;2024-03-23T13:39:24;5.27;;;1.60;;
6117;SDS011;3089;48.202;11.510;2024-03-23T13:41:54;4.83;;;1.60;;
6117;SDS011;3089;48.202;11.510;2024-03-23T13:44:21;4.37;;;1.40;;
6117;SDS011;3089;48.202;11.510;2024-03-23T13:46:48;7.13;;;1.50;;
6117;SDS011;3089;48.202;11.510;2024-03-23T13:49:24;4.73;;;1.20;;
6117;SDS011;3089;48.202;11.510;2024-03-23T13:51:52;9.70;;;1.73;;
6117;SDS011;3089;48.202;11.510;2024-03-23T13:54:20;6.50;;;2.00;;
6117;SDS011;3089;48.202;11.510;2024-03-23T13:56:47;6.00;;;1.40;;
6117;SDS011;3089;48.202;11.510;2024-03-23T13:59:17;4.13;;;1.70;;
6117;SDS011;3089;48.202;11.510;2024-03-23T14:01:43;4.13;;;1.77;;
6117;SDS011;3089;48.202;11.510;2024-03-23T14:04:11;5.77;;;1.57;;
6117;SDS011;3089;48.202;11.510;2024-03-23T14:06:38;5.13;;;1.67;;
6117;SDS011;3089;48.202;11.510;2024-03-23T14:09:07;6.53;;;2.13;;
6117;SDS011;3089;48.202;11.510;2024-03-23T14:11:34;7.37;;;1.93;;
6117;SDS011;3089;48.202;11.510;2024-03-23T14:14:01;6.93;;;1.60;;
6117;SDS011;3089;48.202;11.510;2024-03-23T14:16:30;6.13;;;1.73;;
6117;SDS011;3089;48.202;11.510;2024-03-23T14:18:58;5.97;;;2.50;;
6117;SDS011;3089;48.202;11.510;2024-03-23T14:21:25;5.13;;;2.00;;
6117;SDS011;3089;48.202;11.510;2024-03-23T14:23:52;4.03;;;1.70;;
6117;SDS011;3089;48.202;11.510;2024-03-23T14:26:19;7.10;;;1.87;;
6117;SDS011;3089;48.202;11.510;2024-03-23T14:28:47;4.63;;;1.50;;
6117;SDS011;3089;48.202;11.510;2024-03-23T14:31:15;5.70;;;1.80;;
6117;SDS011;3089;48.202;11.510;2024-03-23T14:33:44;5.70;;;1.63;;
6117;SDS011;3089;48.202;11.510;2024-03-23T14:36:12;6.33;;;1.00;;
6117;SDS011;3089;48.202;11.510;2024-03-23T14:38:39;4.20;;;1.40;;
6117;SDS011;3089;48.202;11.510;2024-03-23T14:41:06;7.33;;;1.30;;
6117;SDS011;3089;48.202;11.510;2024-03-23T14:43:33;3.60;;;1.10;;
6117;SDS011;3089;48.202;11.510;2024-03-23T14:46:06;4.80;;;1.23;;
6117;SDS011;3089;48.202;11.510;2024-03-23T14:48:35;8.10;;;1.73;;
6117;SDS011;3089;48.202;11.510;2024-03-23T14:51:03;3.70;;;1.20;;
6117;SDS011;3089;48.202;11.510;2024-03-23T14:53:32;4.37;;;1.60;;
6117;SDS011;3089;48.202;11.510;2024-03-23T14:55:58;4.30;;;1.30;;
6117;SDS011;3089;48.202;11.510;2024-03-23T14:58:26;2.90;;;0.87;;
6117;SDS011;3089;48.202;11.510;2024-03-23T15:00:53;4.07;;;1.17;;
6117;SDS011;3089;48.202;11.510;2024-03-23T15:03:27;5.77;;;1.10;;
6117;SDS011;3089;48.202;11.510;2024-03-23T15:05:54;4.27;;;1.40;;
6117;SDS011;3089;48.202;11.510;2024-03-23T15:08:23;5.13;;;1.00;;
6117;SDS011;3089;48.202;11.510;2024-03-23T15:10:50;4.50;;;1.00;;
6117;SDS011;3089;48.202;11.510;2024-03-23T15:13:18;4.83;;;1.57;;
6117;SDS011;3089;48.202;11.510;2024-03-23T15:15:44;5.53;;;1.00;;
6117;SDS011;3089;48.202;11.510;2024-03-23T15:18:14;5.00;;;1.20;;
6117;SDS011;3089;48.202;11.510;2024-03-23T15:20:41;2.40;;;0.87;;
6117;SDS011;3089;48.202;11.510;2024-03-23T15:23:08;8.33;;;1.60;;
6117;SDS011;3089;48.202;11.510;2024-03-23T15:25:36;5.97;;;1.47;;
6117;SDS011;3089;48.202;11.510;2024-03-23T15:28:04;3.13;;;1.10;;
6117;SDS011;3089;48.202;11.510;2024-03-23T15:30:30;5.20;;;1.10;;
6117;SDS011;3089;48.202;11.510;2024-03-23T15:32:58;2.87;;;0.87;;
6117;SDS011;3089;48.202;11.510;2024-03-23T15:35:25;3.40;;;1.13;;
6117;SDS011;3089;48.202;11.510;2024-03-23T15:37:52;4.57;;;1.27;;
6117;SDS011;3089;48.202;11.510;2024-03-23T15:40:19;8.27;;;1.03;;
6117;SDS011;3089;48.202;11.510;2024-03-23T15:42:47;5.63;;;1.30;;
6117;SDS011;3089;48.202;11.510;2024-03-23T15:45:15;5.23;;;1.10;;
6117;SDS011;3089;48.202;11.510;2024-03-23T15:47:42;4.83;;;0.90;;
6117;SDS011;3089;48.202;11.510;2024-03-23T15:50:08;4.90;;;1.63;;
6117;SDS011;3089;48.202;11.510;2024-03-23T15:52:36;2.90;;;0.83;;
6117;SDS011;3089;48.202;11.510;2024-03-23T15:55:03;2.20;;;0.90;;
6117;SDS011;3089;48.202;11.510;2024-03-23T15:57:32;2.70;;;1.00;;
6117;SDS011;3089;48.202;11.510;2024-03-23T16:00:02;4.93;;;1.43;;
6117;SDS011;3089;48.202;11.510;2024-03-23T16:02:30;7.13;;;1.43;;